createdAt,value
2019-01-29T00:00:54.347Z,54.58
2019-01-29T00:03:24.285Z,57.90
2019-01-29T00:05:54.259Z,54.15
2019-01-29T00:08:24.279Z,54.60
2019-01-29T00:10:54.056Z,57.75
2019-01-29T00:13:24.109Z,61.60
2019-01-29T00:15:54.008Z,61.45
2019-01-29T00:18:23.912Z,55.35
2019-01-29T00:20:53.715Z,57.38
2019-01-29T00:23:23.818Z,54.90
2019-01-29T00:25:53.760Z,58.58
2019-01-29T00:28:23.577Z,57.85
2019-01-29T00:30:53.379Z,59.33
2019-01-29T00:33:23.300Z,56.92
2019-01-29T00:35:53.279Z,63.33
2019-01-29T00:38:23.131Z,55.43
2019-01-29T00:40:53.063Z,57.55
2019-01-29T00:43:23.129Z,53.45
2019-01-29T00:45:52.984Z,52.53
2019-01-29T00:48:22.927Z,52.03
2019-01-29T00:50:53.170Z,52.83
2019-01-29T00:53:22.806Z,52.23
2019-01-29T00:55:52.449Z,59.65
2019-01-29T00:58:22.507Z,55.85
2019-01-29T01:00:51.975Z,53.38
2019-01-29T01:03:21.479Z,54.95
2019-01-29T01:05:51.277Z,53.35
2019-01-29T01:08:21.014Z,54.67
2019-01-29T01:10:50.699Z,54.00
2019-01-29T01:13:20.568Z,55.95
2019-01-29T01:15:50.150Z,52.73
2019-01-29T01:18:19.900Z,55.95
2019-01-29T01:20:49.786Z,50.83
2019-01-29T01:23:19.504Z,56.40
2019-01-29T01:25:49.198Z,51.23
2019-01-29T01:28:18.901Z,55.30
2019-01-29T01:30:48.531Z,71.67
2019-01-29T01:33:18.148Z,68.67
2019-01-29T01:35:47.924Z,59.95
2019-01-29T01:38:17.522Z,55.98
2019-01-29T01:40:47.248Z,66.90
2019-01-29T01:43:17.007Z,63.05
2019-01-29T01:45:46.793Z,64.45
2019-01-29T01:48:16.947Z,57.10
2019-01-29T01:50:46.708Z,56.13
2019-01-29T01:53:16.405Z,59.65
2019-01-29T01:55:46.134Z,61.02
2019-01-29T01:58:15.964Z,59.48
2019-01-29T02:00:46.164Z,54.35
2019-01-29T02:03:15.926Z,90.72
2019-01-29T02:05:45.692Z,77.17
2019-01-29T02:08:15.410Z,73.52
2019-01-29T02:10:45.138Z,53.25
2019-01-29T02:13:14.854Z,47.50
2019-01-29T02:15:44.221Z,49.13
2019-01-29T02:18:13.757Z,45.92
2019-01-29T02:20:43.770Z,48.52
2019-01-29T02:23:13.336Z,48.08
2019-01-29T02:25:42.774Z,44.98
2019-01-29T02:28:13.313Z,45.50
2019-01-29T02:30:42.829Z,39.80
2019-01-29T02:33:12.540Z,38.42
2019-01-29T02:35:42.182Z,44.42
2019-01-29T02:38:12.535Z,40.83
2019-01-29T02:40:42.021Z,41.13
2019-01-29T02:43:11.668Z,56.53
2019-01-29T02:45:41.244Z,45.67
2019-01-29T02:48:10.969Z,45.52
2019-01-29T02:50:40.553Z,44.33
2019-01-29T02:53:18.115Z,45.65
2019-01-29T02:55:39.790Z,46.95
2019-01-29T02:58:09.442Z,43.20
2019-01-29T03:00:39.155Z,42.65
2019-01-29T03:03:08.952Z,46.85
2019-01-29T03:05:38.727Z,55.50
2019-01-29T03:08:08.416Z,63.60
2019-01-29T03:10:38.067Z,48.38
2019-01-29T03:13:07.959Z,49.08
2019-01-29T03:15:37.480Z,45.23
2019-01-29T03:18:07.134Z,43.20
2019-01-29T03:20:36.751Z,44.65
2019-01-29T03:23:06.448Z,42.75
2019-01-29T03:25:35.790Z,48.13
2019-01-29T03:28:05.580Z,49.42
2019-01-29T03:30:35.315Z,49.30
2019-01-29T03:33:05.000Z,49.42
2019-01-29T03:35:34.801Z,47.73
2019-01-29T03:38:04.516Z,48.48
2019-01-29T03:40:35.591Z,47.58
2019-01-29T03:43:05.358Z,46.98
2019-01-29T03:45:35.047Z,46.13
2019-01-29T03:48:04.833Z,47.33
2019-01-29T03:50:34.331Z,48.13
2019-01-29T03:53:04.186Z,48.10
2019-01-29T03:55:33.864Z,50.70
2019-01-29T03:58:03.510Z,47.65
2019-01-29T04:00:33.129Z,41.90
2019-01-29T04:03:08.921Z,50.48
2019-01-29T04:05:38.787Z,47.78
2019-01-29T04:08:08.257Z,50.25
2019-01-29T04:10:37.982Z,50.88
2019-01-29T04:13:07.411Z,52.10
2019-01-29T04:15:37.083Z,60.58
2019-01-29T04:18:06.731Z,113.22
2019-01-29T04:20:36.525Z,104.38
2019-01-29T04:23:06.108Z,80.10
2019-01-29T04:25:35.844Z,62.08
2019-01-29T04:28:06.364Z,59.50
2019-01-29T04:30:36.062Z,66.57
2019-01-29T04:33:05.803Z,59.70
2019-01-29T04:35:35.656Z,53.65
2019-01-29T04:38:05.423Z,55.92
2019-01-29T04:40:35.237Z,50.73
2019-01-29T04:43:04.992Z,51.50
2019-01-29T04:45:35.046Z,50.40
2019-01-29T04:48:04.925Z,50.30
2019-01-29T04:50:34.715Z,57.55
2019-01-29T04:53:04.375Z,49.45
2019-01-29T04:55:34.109Z,50.10
2019-01-29T04:58:04.058Z,49.58
2019-01-29T05:00:33.802Z,48.68
2019-01-29T05:03:03.561Z,59.67
2019-01-29T05:05:33.034Z,58.87
2019-01-29T05:08:02.799Z,53.00
2019-01-29T05:10:32.754Z,59.03
2019-01-29T05:13:02.469Z,71.72
2019-01-29T05:15:31.967Z,92.40
2019-01-29T05:18:01.717Z,82.02
2019-01-29T05:20:31.275Z,78.60
2019-01-29T05:23:01.019Z,74.85
2019-01-29T05:25:30.740Z,81.47
2019-01-29T05:28:00.236Z,80.42
2019-01-29T05:30:29.731Z,81.17
2019-01-29T05:32:59.492Z,87.33
2019-01-29T05:35:29.035Z,89.40
2019-01-29T05:37:58.810Z,83.37
2019-01-29T05:40:28.415Z,83.10
2019-01-29T05:42:58.744Z,72.30
2019-01-29T05:45:28.405Z,75.00
2019-01-29T05:47:58.316Z,69.95
2019-01-29T05:50:27.916Z,78.42
2019-01-29T05:52:57.594Z,77.42
2019-01-29T05:55:27.060Z,72.42
2019-01-29T05:57:56.638Z,74.62
2019-01-29T06:00:32.088Z,72.82
2019-01-29T06:03:01.689Z,68.92
2019-01-29T06:05:31.307Z,72.45
2019-01-29T06:08:01.051Z,66.62
2019-01-29T06:10:30.550Z,65.85
2019-01-29T06:13:00.250Z,75.03
2019-01-29T06:15:29.773Z,76.35
2019-01-29T06:17:59.248Z,82.17
2019-01-29T06:20:29.470Z,74.60
2019-01-29T06:22:59.004Z,77.45
2019-01-29T06:25:28.741Z,77.10
2019-01-29T06:27:58.398Z,71.87
2019-01-29T06:30:28.174Z,81.53
2019-01-29T06:32:57.814Z,79.25
2019-01-29T06:35:27.475Z,82.12
2019-01-29T06:37:57.103Z,81.10
2019-01-29T06:40:28.114Z,80.32
2019-01-29T06:42:57.878Z,78.57
2019-01-29T06:45:27.531Z,84.92
2019-01-29T06:47:57.199Z,81.82
2019-01-29T06:50:27.428Z,83.78
2019-01-29T06:52:57.104Z,84.20
2019-01-29T06:55:26.806Z,86.45
2019-01-29T06:57:56.705Z,105.30
2019-01-29T07:00:28.111Z,109.75
2019-01-29T07:02:58.026Z,125.00
2019-01-29T07:05:27.687Z,103.75
2019-01-29T07:07:57.194Z,105.47
2019-01-29T07:10:27.164Z,100.15
2019-01-29T07:12:56.976Z,103.53
2019-01-29T07:15:32.180Z,95.30
2019-01-29T07:18:01.723Z,89.22
2019-01-29T07:20:31.420Z,166.92
2019-01-29T07:23:01.202Z,88.15
2019-01-29T07:25:30.967Z,120.28
2019-01-29T07:28:00.446Z,103.15
2019-01-29T07:30:30.149Z,113.75
2019-01-29T07:32:59.663Z,100.25
2019-01-29T07:35:29.290Z,96.57
2019-01-29T07:37:58.906Z,96.02
2019-01-29T07:40:28.631Z,100.55
2019-01-29T07:42:58.222Z,103.90
2019-01-29T07:45:27.991Z,95.45
2019-01-29T07:47:57.423Z,87.45
2019-01-29T07:50:27.112Z,99.83
2019-01-29T07:52:57.190Z,103.47
2019-01-29T07:55:26.904Z,98.45
2019-01-29T07:57:56.572Z,105.32
2019-01-29T08:00:26.134Z,112.68
2019-01-29T08:02:55.817Z,115.15
2019-01-29T08:05:25.888Z,130.12
2019-01-29T08:07:55.567Z,149.40
2019-01-29T08:10:25.139Z,192.10
2019-01-29T08:12:56.547Z,294.32
2019-01-29T08:15:24.520Z,317.18
2019-01-29T08:17:54.290Z,384.35
2019-01-29T08:20:24.028Z,378.15
2019-01-29T08:22:53.507Z,307.92
2019-01-29T08:25:22.998Z,293.30
2019-01-29T08:27:52.487Z,285.57
2019-01-29T08:30:22.244Z,306.77
2019-01-29T08:32:51.854Z,271.45
2019-01-29T08:35:21.455Z,304.80
2019-01-29T08:37:51.163Z,287.63
2019-01-29T08:40:20.740Z,268.20
2019-01-29T08:42:50.271Z,265.15
2019-01-29T08:45:20.044Z,246.37
2019-01-29T08:47:49.612Z,211.97
2019-01-29T08:50:21.288Z,188.27
2019-01-29T08:52:51.239Z,183.72
2019-01-29T08:55:20.888Z,169.72
2019-01-29T08:57:50.388Z,151.72
2019-01-29T09:00:20.315Z,163.75
2019-01-29T09:02:49.964Z,153.12
2019-01-29T09:05:19.693Z,139.28
2019-01-29T09:07:49.294Z,135.30
2019-01-29T09:10:19.187Z,133.27
2019-01-29T09:12:48.768Z,176.10
2019-01-29T09:15:18.383Z,120.33
2019-01-29T09:17:47.978Z,107.45
2019-01-29T09:20:17.814Z,79.22
2019-01-29T09:22:47.474Z,76.33
2019-01-29T09:25:21.117Z,79.32
2019-01-29T09:27:46.579Z,81.15
2019-01-29T09:30:16.768Z,155.65
2019-01-29T09:32:46.289Z,131.45
2019-01-29T09:35:16.044Z,92.75
2019-01-29T09:37:45.600Z,83.80
2019-01-29T09:40:17.189Z,75.47
2019-01-29T09:42:46.628Z,69.90
2019-01-29T09:45:17.546Z,63.68
2019-01-29T09:47:47.241Z,67.65
2019-01-29T09:50:18.891Z,61.05
2019-01-29T09:52:48.584Z,61.58
2019-01-29T09:55:28.193Z,55.12
2019-01-29T09:57:48.799Z,55.17
2019-01-29T10:00:24.482Z,55.55
2019-01-29T10:02:54.013Z,53.63
2019-01-29T10:05:23.531Z,54.40
2019-01-29T10:07:53.156Z,57.33
2019-01-29T10:10:22.971Z,61.98
2019-01-29T10:12:52.541Z,56.18
2019-01-29T10:15:24.516Z,81.67
2019-01-29T10:17:54.267Z,88.37
2019-01-29T10:20:24.012Z,84.90
2019-01-29T10:22:53.800Z,96.67
2019-01-29T10:25:23.600Z,104.60
2019-01-29T10:27:53.235Z,111.10
2019-01-29T10:30:23.437Z,113.30
2019-01-29T10:32:53.022Z,101.22
2019-01-29T10:35:22.937Z,80.70
2019-01-29T10:37:52.568Z,72.55
2019-01-29T10:40:22.995Z,55.60
2019-01-29T10:42:52.737Z,50.05
2019-01-29T10:45:22.299Z,38.63
2019-01-29T10:47:51.747Z,43.58
2019-01-29T10:50:22.951Z,44.23
2019-01-29T10:52:52.617Z,44.60
2019-01-29T10:55:22.484Z,40.78
2019-01-29T10:57:52.087Z,44.80
2019-01-29T11:00:24.129Z,38.15
2019-01-29T11:02:53.566Z,59.95
2019-01-29T11:05:23.372Z,40.55
2019-01-29T11:07:52.965Z,46.02
2019-01-29T11:10:22.634Z,34.53
2019-01-29T11:12:52.276Z,27.85
2019-01-29T11:15:26.546Z,30.10
2019-01-29T11:17:56.335Z,36.33
2019-01-29T11:20:26.142Z,38.58
2019-01-29T11:22:55.824Z,35.28
2019-01-29T11:25:26.727Z,28.75
2019-01-29T11:27:56.525Z,29.02
2019-01-29T11:30:28.769Z,39.23
2019-01-29T11:32:58.617Z,41.58
2019-01-29T11:35:28.423Z,59.13
2019-01-29T11:37:58.080Z,52.13
2019-01-29T11:40:28.750Z,46.80
2019-01-29T11:42:58.457Z,51.23
2019-01-29T11:45:30.342Z,51.08
2019-01-29T11:47:59.967Z,453.45
2019-01-29T11:50:29.605Z,63.50
2019-01-29T11:52:59.319Z,64.50
2019-01-29T11:55:28.906Z,82.45
2019-01-29T11:57:58.536Z,112.15
2019-01-29T12:00:36.775Z,111.75
2019-01-29T12:03:07.081Z,111.17
2019-01-29T12:05:36.824Z,126.95
2019-01-29T12:08:06.725Z,132.52
2019-01-29T12:10:36.525Z,134.87
2019-01-29T12:13:06.623Z,144.62
2019-01-29T12:15:36.435Z,152.68
2019-01-29T12:18:06.635Z,170.10
2019-01-29T12:20:36.512Z,164.28
2019-01-29T12:23:05.891Z,167.80
2019-01-29T12:25:35.632Z,164.80
2019-01-29T12:28:05.389Z,158.27
2019-01-29T12:30:35.098Z,177.15
2019-01-29T12:33:05.200Z,178.78
2019-01-29T12:35:35.239Z,189.85
2019-01-29T12:38:05.336Z,185.22
2019-01-29T12:40:37.026Z,228.92
2019-01-29T12:43:04.832Z,220.55
2019-01-29T12:45:34.538Z,217.10
2019-01-29T12:48:04.347Z,239.08
2019-01-29T12:50:34.216Z,237.38
2019-01-29T12:53:07.056Z,220.07
2019-01-29T12:55:36.745Z,214.93
2019-01-29T12:58:06.494Z,224.70
2019-01-29T13:00:53.613Z,209.83
2019-01-29T13:03:23.251Z,197.68
2019-01-29T13:05:52.784Z,199.80
2019-01-29T13:08:22.511Z,192.45
2019-01-29T13:10:52.094Z,193.47
2019-01-29T13:13:21.739Z,183.18
2019-01-29T13:15:51.600Z,188.15
2019-01-29T13:18:21.339Z,180.90
2019-01-29T13:20:51.118Z,183.30
2019-01-29T13:23:21.052Z,185.48
2019-01-29T13:25:50.629Z,186.57
2019-01-29T13:28:20.371Z,183.55
2019-01-29T13:30:50.077Z,182.50
2019-01-29T13:33:19.873Z,355.92
2019-01-29T13:35:49.373Z,245.20
2019-01-29T13:38:19.012Z,209.57
2019-01-29T13:40:48.699Z,210.45
2019-01-29T13:43:18.196Z,205.62
2019-01-29T13:45:48.012Z,191.55
2019-01-29T13:48:17.793Z,239.02
2019-01-29T13:50:50.551Z,233.13
2019-01-29T13:53:20.228Z,180.25
2019-01-29T13:55:49.853Z,169.77
2019-01-29T13:58:19.696Z,171.72
2019-01-29T14:00:50.140Z,194.28
2019-01-29T14:03:19.779Z,205.12
2019-01-29T14:05:49.409Z,210.02
2019-01-29T14:08:19.121Z,200.55
2019-01-29T14:10:48.711Z,201.27
2019-01-29T14:13:18.333Z,196.53
2019-01-29T14:15:51.843Z,192.87
2019-01-29T14:18:23.353Z,198.62
2019-01-29T14:20:53.182Z,187.45
2019-01-29T14:23:22.902Z,198.75
2019-01-29T14:25:52.620Z,189.00
2019-01-29T14:28:22.970Z,190.12
2019-01-29T14:30:52.681Z,200.35
2019-01-29T14:33:22.295Z,194.40
2019-01-29T14:35:51.831Z,192.62
2019-01-29T14:39:30.079Z,187.32
2019-01-29T14:41:59.474Z,201.15
2019-01-29T14:44:36.336Z,222.60
2019-01-29T14:47:05.977Z,216.17
2019-01-29T14:49:35.680Z,228.20
2019-01-29T14:52:05.424Z,235.00
2019-01-29T14:54:35.071Z,215.45
2019-01-29T14:57:04.741Z,224.40
2019-01-29T14:59:34.241Z,217.45
2019-01-29T15:02:03.892Z,195.87
2019-01-29T15:04:33.647Z,198.17
2019-01-29T15:07:04.319Z,208.80
2019-01-29T15:09:33.765Z,172.55
2019-01-29T15:12:03.274Z,180.55
2019-01-29T15:14:32.924Z,179.80
2019-01-29T15:17:13.638Z,200.90
2019-01-29T15:19:43.489Z,194.40
2019-01-29T15:22:13.257Z,174.60
2019-01-29T15:24:42.697Z,203.37
2019-01-29T15:27:12.673Z,186.82
2019-01-29T15:29:42.303Z,187.92
2019-01-29T15:32:11.810Z,199.93
2019-01-29T15:34:41.828Z,246.10
2019-01-29T15:37:11.686Z,257.50
2019-01-29T15:39:41.252Z,184.40
2019-01-29T15:42:10.958Z,202.80
2019-01-29T15:44:40.659Z,196.50
2019-01-29T15:47:10.239Z,179.40
2019-01-29T15:49:40.326Z,205.98
2019-01-29T15:52:10.034Z,209.90
2019-01-29T15:54:40.849Z,195.47
2019-01-29T15:57:14.356Z,212.78
2019-01-29T15:59:43.078Z,189.77
2019-01-29T16:02:10.492Z,200.18
2019-01-29T16:04:40.390Z,184.25
2019-01-29T16:07:09.930Z,178.82
2019-01-29T16:09:39.400Z,194.17
2019-01-29T16:12:09.083Z,193.68
2019-01-29T16:14:38.728Z,183.68
2019-01-29T16:17:08.232Z,185.60
2019-01-29T16:19:38.275Z,188.80
2019-01-29T16:22:07.807Z,186.65
2019-01-29T16:24:37.599Z,192.75
2019-01-29T16:27:07.526Z,202.53
2019-01-29T16:29:37.012Z,203.92
2019-01-29T16:32:06.744Z,197.45
2019-01-29T16:34:36.116Z,185.80
2019-01-29T16:37:05.850Z,197.70
2019-01-29T16:39:35.396Z,271.68
2019-01-29T16:42:05.190Z,165.65
2019-01-29T16:44:34.860Z,172.10
2019-01-29T16:47:04.462Z,180.22
2019-01-29T16:49:34.189Z,187.05
2019-01-29T16:52:03.947Z,271.80
2019-01-29T16:54:33.436Z,206.15
2019-01-29T16:57:03.047Z,290.35
2019-01-29T16:59:32.498Z,284.60
2019-01-29T17:02:02.362Z,224.73
2019-01-29T17:04:31.919Z,239.82
2019-01-29T17:07:01.648Z,280.42
2019-01-29T17:09:31.429Z,311.65
2019-01-29T17:12:01.159Z,308.98
2019-01-29T17:14:30.716Z,356.63
2019-01-29T17:17:00.423Z,348.57
2019-01-29T17:19:29.854Z,344.02
2019-01-29T17:21:59.477Z,333.63
2019-01-29T17:24:29.251Z,304.95
2019-01-29T17:26:58.886Z,308.47
2019-01-29T17:29:28.524Z,318.35
2019-01-29T17:31:58.310Z,342.07
2019-01-29T17:34:27.782Z,334.65
2019-01-29T17:36:57.171Z,347.52
2019-01-29T17:39:26.701Z,353.77
2019-01-29T17:41:56.349Z,328.02
2019-01-29T17:44:25.948Z,337.80
2019-01-29T17:46:55.672Z,317.85
2019-01-29T17:49:25.231Z,318.37
2019-01-29T17:51:54.856Z,310.80
2019-01-29T17:54:24.651Z,307.83
2019-01-29T17:56:54.429Z,297.12
2019-01-29T17:59:23.940Z,297.63
2019-01-29T18:01:53.471Z,318.73
2019-01-29T18:04:23.251Z,305.12
2019-01-29T18:06:52.943Z,298.25
2019-01-29T18:09:22.728Z,311.70
2019-01-29T18:11:52.330Z,302.68
2019-01-29T18:14:22.711Z,295.15
2019-01-29T18:16:52.457Z,273.50
2019-01-29T18:19:21.919Z,331.10
2019-01-29T18:21:57.021Z,316.60
2019-01-29T18:24:21.157Z,319.37
2019-01-29T18:26:50.921Z,298.75
2019-01-29T18:29:20.668Z,285.90
2019-01-29T18:31:50.336Z,311.12
2019-01-29T18:34:19.774Z,312.65
2019-01-29T18:36:49.493Z,327.38
2019-01-29T18:39:19.278Z,311.30
2019-01-29T18:41:48.780Z,330.07
2019-01-29T18:44:18.085Z,381.93
2019-01-29T18:46:47.867Z,372.82
2019-01-29T18:49:17.636Z,347.55
2019-01-29T18:51:47.334Z,345.52
2019-01-29T18:54:16.923Z,334.75
2019-01-29T18:56:46.555Z,328.00
2019-01-29T18:59:16.089Z,370.97
2019-01-29T19:01:45.790Z,319.90
2019-01-29T19:04:15.328Z,341.20
2019-01-29T19:06:44.843Z,268.48
2019-01-29T19:09:14.436Z,243.40
2019-01-29T19:11:44.112Z,206.47
2019-01-29T19:14:13.581Z,174.97
2019-01-29T19:16:42.928Z,155.75
2019-01-29T19:19:14.734Z,160.52
2019-01-29T19:21:42.295Z,160.25
2019-01-29T19:24:11.999Z,181.65
2019-01-29T19:26:41.760Z,211.90
2019-01-29T19:29:11.313Z,208.55
2019-01-29T19:31:41.188Z,235.38
2019-01-29T19:34:11.181Z,268.02
2019-01-29T19:36:40.719Z,273.43
2019-01-29T19:39:10.583Z,255.27
2019-01-29T19:41:40.212Z,246.50
2019-01-29T19:44:09.941Z,243.37
2019-01-29T19:46:39.825Z,244.40
2019-01-29T19:49:09.603Z,233.82
2019-01-29T19:51:39.225Z,230.47
2019-01-29T19:54:08.899Z,228.90
2019-01-29T19:56:38.708Z,217.60
2019-01-29T19:59:08.382Z,197.05
2019-01-29T20:01:38.160Z,204.65
2019-01-29T20:04:08.093Z,221.40
2019-01-29T20:06:37.694Z,224.70
2019-01-29T20:09:11.527Z,543.42
2019-01-29T20:11:41.463Z,252.72
2019-01-29T20:14:11.066Z,220.67
2019-01-29T20:16:40.832Z,225.87
2019-01-29T20:19:10.485Z,221.20
2019-01-29T20:21:39.897Z,212.85
2019-01-29T20:24:09.864Z,206.38
2019-01-29T20:26:39.638Z,229.45
2019-01-29T20:29:09.180Z,219.05
2019-01-29T20:31:39.059Z,214.88
2019-01-29T20:34:08.592Z,220.07
2019-01-29T20:36:38.263Z,209.72
2019-01-29T20:39:09.579Z,211.97
2019-01-29T20:41:39.264Z,212.23
2019-01-29T20:44:08.852Z,218.07
2019-01-29T20:46:38.546Z,224.92
2019-01-29T20:49:08.041Z,217.95
2019-01-29T20:51:37.783Z,218.25
2019-01-29T20:54:07.735Z,224.00
2019-01-29T20:56:37.069Z,244.20
2019-01-29T20:59:07.599Z,243.65
2019-01-29T21:01:37.157Z,231.02
2019-01-29T21:04:06.828Z,233.38
2019-01-29T21:06:36.536Z,279.82
2019-01-29T21:09:08.631Z,250.80
2019-01-29T21:11:38.295Z,254.63
2019-01-29T21:14:07.892Z,274.30
2019-01-29T21:16:37.544Z,253.40
2019-01-29T21:19:06.891Z,271.93
2019-01-29T21:21:36.779Z,261.15
2019-01-29T21:24:06.748Z,274.40
2019-01-29T21:26:36.381Z,270.60
2019-01-29T21:29:05.901Z,294.32
2019-01-29T21:31:35.543Z,311.85
2019-01-29T21:34:04.969Z,316.17
2019-01-29T21:36:34.723Z,317.48
2019-01-29T21:39:05.449Z,356.82
2019-01-29T21:41:35.244Z,342.70
2019-01-29T21:44:05.147Z,336.43
2019-01-29T21:46:35.059Z,296.68
2019-01-29T21:49:04.671Z,361.05
2019-01-29T21:51:34.297Z,418.70
2019-01-29T21:54:03.885Z,416.32
2019-01-29T21:56:33.412Z,406.73
2019-01-29T21:59:12.952Z,417.07
2019-01-29T22:01:32.761Z,413.20
2019-01-29T22:04:02.228Z,413.95
2019-01-29T22:06:31.710Z,394.95
2019-01-29T22:09:01.676Z,407.15
2019-01-29T22:11:31.232Z,410.78
2019-01-29T22:14:00.850Z,404.27
2019-01-29T22:16:30.584Z,414.63
2019-01-29T22:19:00.377Z,395.33
2019-01-29T22:21:30.102Z,392.25
2019-01-29T22:23:59.636Z,400.85
2019-01-29T22:26:29.155Z,450.00
2019-01-29T22:28:58.623Z,424.27
2019-01-29T22:31:28.440Z,438.75
2019-01-29T22:33:58.125Z,417.40
2019-01-29T22:36:27.872Z,421.48
2019-01-29T22:38:57.659Z,439.60
2019-01-29T22:41:27.255Z,456.35
2019-01-29T22:43:56.932Z,486.92
2019-01-29T22:46:26.579Z,481.37
2019-01-29T22:48:56.299Z,467.93
2019-01-29T22:51:25.732Z,500.55
2019-01-29T22:53:55.498Z,468.45
2019-01-29T22:56:25.251Z,499.45
2019-01-29T22:58:54.857Z,446.27
2019-01-29T23:01:29.759Z,458.45
2019-01-29T23:04:37.043Z,539.75
2019-01-29T23:07:24.371Z,484.50
2019-01-29T23:09:53.730Z,594.17
2019-01-29T23:12:23.444Z,481.82
2019-01-29T23:14:52.995Z,456.55
2019-01-29T23:17:22.908Z,390.80
2019-01-29T23:19:52.532Z,385.85
2019-01-29T23:22:22.060Z,428.50
2019-01-29T23:24:52.392Z,410.90
2019-01-29T23:27:22.058Z,430.67
2019-01-29T23:29:51.679Z,404.00
2019-01-29T23:32:21.570Z,394.62
2019-01-29T23:34:51.064Z,448.95
2019-01-29T23:37:20.410Z,413.15
2019-01-29T23:39:50.299Z,418.15
2019-01-29T23:45:20.912Z,509.63
2019-01-29T23:47:54.779Z,588.25
2019-01-29T23:50:24.711Z,558.42
2019-01-29T23:52:54.282Z,569.28
2019-01-29T23:55:23.919Z,552.20
2019-01-29T23:57:53.707Z,526.55
